sensor_id;sensor_type;location;lat;lon;timestamp;temperature;humidity
66835;HTU21D;53743;51.100;5.874;2023-06-10T00:00:46;23.05;52.11
66835;HTU21D;53743;51.100;5.874;2023-06-10T00:01:48;23.02;52.23
66835;HTU21D;53743;51.100;5.874;2023-06-10T00:02:49;23.01;52.09
66835;HTU21D;53743;51.100;5.874;2023-06-10T00:03:51;23.03;52.84
66835;HTU21D;53743;51.100;5.874;2023-06-10T00:04:52;23.00;51.96
66835;HTU21D;53743;51.100;5.874;2023-06-10T00:05:54;22.99;52.01
66835;HTU21D;53743;51.100;5.874;2023-06-10T00:06:55;22.96;53.52
66835;HTU21D;53743;51.100;5.874;2023-06-10T00:07:58;22.95;52.58
66835;HTU21D;53743;51.100;5.874;2023-06-10T00:09:00;22.96;53.75
66835;HTU21D;53743;51.100;5.874;2023-06-10T00:10:02;22.94;52.68
66835;HTU21D;53743;51.100;5.874;2023-06-10T00:11:05;22.93;52.23
66835;HTU21D;53743;51.100;5.874;2023-06-10T00:12:08;22.92;52.82
66835;HTU21D;53743;51.100;5.874;2023-06-10T00:13:10;22.90;53.29
66835;HTU21D;53743;51.100;5.874;2023-06-10T00:14:12;22.91;52.50
66835;HTU21D;53743;51.100;5.874;2023-06-10T00:15:14;22.88;52.80
66835;HTU21D;53743;51.100;5.874;2023-06-10T00:16:16;22.86;53.53
66835;HTU21D;53743;51.100;5.874;2023-06-10T00:17:18;22.85;52.98
66835;HTU21D;53743;51.100;5.874;2023-06-10T00:18:20;22.81;54.54
66835;HTU21D;53743;51.100;5.874;2023-06-10T00:19:22;22.78;53.44
66835;HTU21D;53743;51.100;5.874;2023-06-10T00:20:26;22.78;53.48
66835;HTU21D;53743;51.100;5.874;2023-06-10T00:21:27;22.73;54.97
66835;HTU21D;53743;51.100;5.874;2023-06-10T00:22:29;22.72;53.81
66835;HTU21D;53743;51.100;5.874;2023-06-10T00:23:32;22.70;53.81
66835;HTU21D;53743;51.100;5.874;2023-06-10T00:24:38;22.66;54.30
66835;HTU21D;53743;51.100;5.874;2023-06-10T00:25:39;22.68;53.81
66835;HTU21D;53743;51.100;5.874;2023-06-10T00:26:41;22.65;54.01
66835;HTU21D;53743;51.100;5.874;2023-06-10T00:27:42;22.63;54.04
66835;HTU21D;53743;51.100;5.874;2023-06-10T00:28:44;22.61;54.23
66835;HTU21D;53743;51.100;5.874;2023-06-10T00:29:45;22.61;54.36
66835;HTU21D;53743;51.100;5.874;2023-06-10T00:30:49;22.60;55.11
66835;HTU21D;53743;51.100;5.874;2023-06-10T00:31:50;22.60;54.47
66835;HTU21D;53743;51.100;5.874;2023-06-10T00:32:54;22.56;54.52
66835;HTU21D;53743;51.100;5.874;2023-06-10T00:33:55;22.54;54.65
66835;HTU21D;53743;51.100;5.874;2023-06-10T00:34:58;22.52;54.91
66835;HTU21D;53743;51.100;5.874;2023-06-10T00:35:59;22.49;54.96
66835;HTU21D;53743;51.100;5.874;2023-06-10T00:37:02;22.46;54.97
66835;HTU21D;53743;51.100;5.874;2023-06-10T00:38:04;22.43;55.06
66835;HTU21D;53743;51.100;5.874;2023-06-10T00:39:06;22.43;55.21
66835;HTU21D;53743;51.100;5.874;2023-06-10T00:40:08;22.42;55.76
66835;HTU21D;53743;51.100;5.874;2023-06-10T00:41:11;22.41;56.56
66835;HTU21D;53743;51.100;5.874;2023-06-10T00:42:12;22.39;55.39
66835;HTU21D;53743;51.100;5.874;2023-06-10T00:43:14;22.39;55.46
66835;HTU21D;53743;51.100;5.874;2023-06-10T00:44:15;22.39;55.41
66835;HTU21D;53743;51.100;5.874;2023-06-10T00:45:17;22.38;55.64
66835;HTU21D;53743;51.100;5.874;2023-06-10T00:46:21;22.37;56.06
66835;HTU21D;53743;51.100;5.874;2023-06-10T00:47:23;22.35;55.65
66835;HTU21D;53743;51.100;5.874;2023-06-10T00:48:26;22.34;55.74
66835;HTU21D;53743;51.100;5.874;2023-06-10T00:49:31;22.32;55.83
66835;HTU21D;53743;51.100;5.874;2023-06-10T00:50:32;22.29;55.98
66835;HTU21D;53743;51.100;5.874;2023-06-10T00:51:35;22.28;56.15
66835;HTU21D;53743;51.100;5.874;2023-06-10T00:52:36;22.27;56.25
66835;HTU21D;53743;51.100;5.874;2023-06-10T00:53:40;22.28;56.12
66835;HTU21D;53743;51.100;5.874;2023-06-10T00:54:42;22.25;56.15
66835;HTU21D;53743;51.100;5.874;2023-06-10T00:55:44;22.19;56.47
66835;HTU21D;53743;51.100;5.874;2023-06-10T00:56:46;22.16;56.41
66835;HTU21D;53743;51.100;5.874;2023-06-10T00:57:50;22.12;56.72
66835;HTU21D;53743;51.100;5.874;2023-06-10T00:58:52;22.07;57.32
66835;HTU21D;53743;51.100;5.874;2023-06-10T00:59:54;22.07;56.98
66835;HTU21D;53743;51.100;5.874;2023-06-10T01:00:55;22.04;57.54
66835;HTU21D;53743;51.100;5.874;2023-06-10T01:02:03;21.98;57.20
66835;HTU21D;53743;51.100;5.874;2023-06-10T01:03:04;21.96;57.33
66835;HTU21D;53743;51.100;5.874;2023-06-10T01:04:08;21.94;57.42
66835;HTU21D;53743;51.100;5.874;2023-06-10T01:05:12;21.89;57.58
66835;HTU21D;53743;51.100;5.874;2023-06-10T01:06:27;21.84;59.38
66835;HTU21D;53743;51.100;5.874;2023-06-10T01:07:43;21.76;58.41
66835;HTU21D;53743;51.100;5.874;2023-06-10T01:08:59;21.78;58.62
66835;HTU21D;53743;51.100;5.874;2023-06-10T01:10:13;21.76;58.06
66835;HTU21D;53743;51.100;5.874;2023-06-10T01:11:28;21.77;58.25
66835;HTU21D;53743;51.100;5.874;2023-06-10T01:12:43;21.76;58.22
66835;HTU21D;53743;51.100;5.874;2023-06-10T01:13:51;21.75;58.52
66835;HTU21D;53743;51.100;5.874;2023-06-10T01:14:54;21.73;58.48
66835;HTU21D;53743;51.100;5.874;2023-06-10T01:15:58;21.72;58.25
66835;HTU21D;53743;51.100;5.874;2023-06-10T01:17:02;21.72;58.43
66835;HTU21D;53743;51.100;5.874;2023-06-10T01:18:06;21.70;58.60
66835;HTU21D;53743;51.100;5.874;2023-06-10T01:19:11;21.68;58.40
66835;HTU21D;53743;51.100;5.874;2023-06-10T01:20:13;21.66;58.58
66835;HTU21D;53743;51.100;5.874;2023-06-10T01:21:20;21.68;58.28
66835;HTU21D;53743;51.100;5.874;2023-06-10T01:22:26;21.67;58.30
66835;HTU21D;53743;51.100;5.874;2023-06-10T01:23:29;21.67;58.22
66835;HTU21D;53743;51.100;5.874;2023-06-10T01:24:31;21.68;58.15
66835;HTU21D;53743;51.100;5.874;2023-06-10T01:25:38;21.70;58.16
66835;HTU21D;53743;51.100;5.874;2023-06-10T01:26:49;21.68;58.09
66835;HTU21D;53743;51.100;5.874;2023-06-10T01:28:02;21.69;58.13
66835;HTU21D;53743;51.100;5.874;2023-06-10T01:29:14;21.66;58.09
66835;HTU21D;53743;51.100;5.874;2023-06-10T01:30:27;21.66;58.15
66835;HTU21D;53743;51.100;5.874;2023-06-10T01:31:42;21.65;58.35
66835;HTU21D;53743;51.100;5.874;2023-06-10T01:32:50;21.65;58.14
66835;HTU21D;53743;51.100;5.874;2023-06-10T01:33:54;21.65;58.16
66835;HTU21D;53743;51.100;5.874;2023-06-10T01:34:59;21.65;58.25
66835;HTU21D;53743;51.100;5.874;2023-06-10T01:36:03;21.63;58.25
66835;HTU21D;53743;51.100;5.874;2023-06-10T01:37:09;21.62;58.32
66835;HTU21D;53743;51.100;5.874;2023-06-10T01:38:15;21.64;58.30
66835;HTU21D;53743;51.100;5.874;2023-06-10T01:39:23;21.59;59.58
66835;HTU21D;53743;51.100;5.874;2023-06-10T01:40:26;21.54;58.41
66835;HTU21D;53743;51.100;5.874;2023-06-10T01:41:29;21.51;58.64
66835;HTU21D;53743;51.100;5.874;2023-06-10T01:42:33;21.49;58.79
66835;HTU21D;53743;51.100;5.874;2023-06-10T01:43:34;21.46;58.88
66835;HTU21D;53743;51.100;5.874;2023-06-10T01:44:39;21.45;58.90
66835;HTU21D;53743;51.100;5.874;2023-06-10T01:45:42;21.40;59.17
66835;HTU21D;53743;51.100;5.874;2023-06-10T01:46:44;21.38;59.70
66835;HTU21D;53743;51.100;5.874;2023-06-10T01:47:45;21.34;59.27
66835;HTU21D;53743;51.100;5.874;2023-06-10T01:48:48;21.33;59.38
66835;HTU21D;53743;51.100;5.874;2023-06-10T01:49:50;21.33;59.70
66835;HTU21D;53743;51.100;5.874;2023-06-10T01:50:52;21.34;59.12
66835;HTU21D;53743;51.100;5.874;2023-06-10T01:51:53;21.35;59.31
66835;HTU21D;53743;51.100;5.874;2023-06-10T01:52:57;21.37;59.09
66835;HTU21D;53743;51.100;5.874;2023-06-10T01:54:01;21.34;59.30
66835;HTU21D;53743;51.100;5.874;2023-06-10T01:55:04;21.35;59.64
66835;HTU21D;53743;51.100;5.874;2023-06-10T01:56:06;21.36;59.08
66835;HTU21D;53743;51.100;5.874;2023-06-10T01:57:09;21.37;58.96
66835;HTU21D;53743;51.100;5.874;2023-06-10T01:58:10;21.38;59.01
66835;HTU21D;53743;51.100;5.874;2023-06-10T01:59:12;21.37;59.16
66835;HTU21D;53743;51.100;5.874;2023-06-10T02:00:14;21.37;59.28
66835;HTU21D;53743;51.100;5.874;2023-06-10T02:01:17;21.36;59.03
66835;HTU21D;53743;51.100;5.874;2023-06-10T02:02:18;21.36;59.09
66835;HTU21D;53743;51.100;5.874;2023-06-10T02:03:22;21.38;58.99
66835;HTU21D;53743;51.100;5.874;2023-06-10T02:04:23;21.37;59.06
66835;HTU21D;53743;51.100;5.874;2023-06-10T02:05:26;21.36;59.25
66835;HTU21D;53743;51.100;5.874;2023-06-10T02:06:27;21.34;59.06
66835;HTU21D;53743;51.100;5.874;2023-06-10T02:07:29;21.34;59.17
66835;HTU21D;53743;51.100;5.874;2023-06-10T02:08:31;21.33;59.18
66835;HTU21D;53743;51.100;5.874;2023-06-10T02:09:35;21.31;59.26
66835;HTU21D;53743;51.100;5.874;2023-06-10T02:10:37;21.25;59.50
66835;HTU21D;53743;51.100;5.874;2023-06-10T02:11:39;21.22;59.68
66835;HTU21D;53743;51.100;5.874;2023-06-10T02:12:40;21.20;59.80
66835;HTU21D;53743;51.100;5.874;2023-06-10T02:13:42;21.18;60.01
66835;HTU21D;53743;51.100;5.874;2023-06-10T02:14:43;21.16;60.09
66835;HTU21D;53743;51.100;5.874;2023-06-10T02:15:45;21.13;60.22
66835;HTU21D;53743;51.100;5.874;2023-06-10T02:16:47;21.09;61.09
66835;HTU21D;53743;51.100;5.874;2023-06-10T02:17:49;21.04;60.41
66835;HTU21D;53743;51.100;5.874;2023-06-10T02:18:51;21.01;60.99
66835;HTU21D;53743;51.100;5.874;2023-06-10T02:19:53;20.99;60.73
66835;HTU21D;53743;51.100;5.874;2023-06-10T02:20:55;20.96;61.07
66835;HTU21D;53743;51.100;5.874;2023-06-10T02:21:57;20.92;61.11
66835;HTU21D;53743;51.100;5.874;2023-06-10T02:22:59;20.91;61.41
66835;HTU21D;53743;51.100;5.874;2023-06-10T02:24:02;20.87;61.17
66835;HTU21D;53743;51.100;5.874;2023-06-10T02:25:05;20.86;61.35
66835;HTU21D;53743;51.100;5.874;2023-06-10T02:26:07;20.85;61.40
66835;HTU21D;53743;51.100;5.874;2023-06-10T02:27:08;20.86;61.31
66835;HTU21D;53743;51.100;5.874;2023-06-10T02:28:11;20.87;61.37
66835;HTU21D;53743;51.100;5.874;2023-06-10T02:29:12;20.85;61.44
66835;HTU21D;53743;51.100;5.874;2023-06-10T02:30:14;20.84;61.63
66835;HTU21D;53743;51.100;5.874;2023-06-10T02:31:16;20.84;61.80
66835;HTU21D;53743;51.100;5.874;2023-06-10T02:32:20;20.81;61.79
66835;HTU21D;53743;51.100;5.874;2023-06-10T02:33:21;20.77;61.85
66835;HTU21D;53743;51.100;5.874;2023-06-10T02:34:24;20.77;61.92
66835;HTU21D;53743;51.100;5.874;2023-06-10T02:35:25;20.74;61.97
66835;HTU21D;53743;51.100;5.874;2023-06-10T02:36:28;20.72;62.15
66835;HTU21D;53743;51.100;5.874;2023-06-10T02:37:29;20.73;62.08
66835;HTU21D;53743;51.100;5.874;2023-06-10T02:38:31;20.71;62.08
66835;HTU21D;53743;51.100;5.874;2023-06-10T02:39:35;20.69;62.21
66835;HTU21D;53743;51.100;5.874;2023-06-10T02:40:41;20.68;62.23
66835;HTU21D;53743;51.100;5.874;2023-06-10T02:41:43;20.68;62.43
66835;HTU21D;53743;51.100;5.874;2023-06-10T02:42:46;20.62;63.48
66835;HTU21D;53743;51.100;5.874;2023-06-10T02:43:47;20.59;62.54
66835;HTU21D;53743;51.100;5.874;2023-06-10T02:44:50;20.61;62.49
66835;HTU21D;53743;51.100;5.874;2023-06-10T02:45:59;20.60;63.19
66835;HTU21D;53743;51.100;5.874;2023-06-10T02:47:02;20.58;62.53
66835;HTU21D;53743;51.100;5.874;2023-06-10T02:48:03;20.57;62.44
66835;HTU21D;53743;51.100;5.874;2023-06-10T02:49:07;20.55;62.62
66835;HTU21D;53743;51.100;5.874;2023-06-10T02:50:09;20.55;62.60
66835;HTU21D;53743;51.100;5.874;2023-06-10T02:51:44;20.53;62.82
66835;HTU21D;53743;51.100;5.874;2023-06-10T02:52:45;20.51;62.84
66835;HTU21D;53743;51.100;5.874;2023-06-10T02:53:47;20.49;63.01
66835;HTU21D;53743;51.100;5.874;2023-06-10T02:54:50;20.48;62.96
66835;HTU21D;53743;51.100;5.874;2023-06-10T02:55:52;20.47;62.98
66835;HTU21D;53743;51.100;5.874;2023-06-10T02:56:54;20.46;63.01
66835;HTU21D;53743;51.100;5.874;2023-06-10T02:57:59;20.50;63.02
66835;HTU21D;53743;51.100;5.874;2023-06-10T02:59:01;20.47;63.25
66835;HTU21D;53743;51.100;5.874;2023-06-10T03:00:06;20.47;62.95
66835;HTU21D;53743;51.100;5.874;2023-06-10T03:01:12;20.46;63.07
66835;HTU21D;53743;51.100;5.874;2023-06-10T03:02:32;20.44;63.16
66835;HTU21D;53743;51.100;5.874;2023-06-10T03:03:38;20.43;63.29
66835;HTU21D;53743;51.100;5.874;2023-06-10T03:04:45;20.41;63.44
66835;HTU21D;53743;51.100;5.874;2023-06-10T03:05:50;20.41;63.51
66835;HTU21D;53743;51.100;5.874;2023-06-10T03:06:53;20.37;64.04
66835;HTU21D;53743;51.100;5.874;2023-06-10T03:08:00;20.35;63.81
66835;HTU21D;53743;51.100;5.874;2023-06-10T03:09:04;20.33;63.92
66835;HTU21D;53743;51.100;5.874;2023-06-10T03:10:07;20.30;64.25
66835;HTU21D;53743;51.100;5.874;2023-06-10T03:11:12;20.25;64.63
66835;HTU21D;53743;51.100;5.874;2023-06-10T03:12:13;20.22;64.57
66835;HTU21D;53743;51.100;5.874;2023-06-10T03:13:20;20.20;64.69
66835;HTU21D;53743;51.100;5.874;2023-06-10T03:14:21;20.17;64.79
66835;HTU21D;53743;51.100;5.874;2023-06-10T03:15:25;20.17;64.76
66835;HTU21D;53743;51.100;5.874;2023-06-10T03:16:29;20.15;64.85
66835;HTU21D;53743;51.100;5.874;2023-06-10T03:17:32;20.11;65.03
66835;HTU21D;53743;51.100;5.874;2023-06-10T03:18:33;20.11;65.17
66835;HTU21D;53743;51.100;5.874;2023-06-10T03:19:35;20.12;65.14
66835;HTU21D;53743;51.100;5.874;2023-06-10T03:20:38;20.12;65.09
66835;HTU21D;53743;51.100;5.874;2023-06-10T03:21:44;20.13;65.06
66835;HTU21D;53743;51.100;5.874;2023-06-10T03:22:47;20.13;65.07
66835;HTU21D;53743;51.100;5.874;2023-06-10T03:23:49;20.14;64.91
66835;HTU21D;53743;51.100;5.874;2023-06-10T03:24:50;20.15;64.88
66835;HTU21D;53743;51.100;5.874;2023-06-10T03:25:55;20.15;64.79
66835;HTU21D;53743;51.100;5.874;2023-06-10T03:26:57;20.15;64.65
66835;HTU21D;53743;51.100;5.874;2023-06-10T03:27:59;20.17;64.69
66835;HTU21D;53743;51.100;5.874;2023-06-10T03:29:00;20.18;64.69
66835;HTU21D;53743;51.100;5.874;2023-06-10T03:30:03;20.15;64.79
66835;HTU21D;53743;51.100;5.874;2023-06-10T03:31:05;20.12;65.08
66835;HTU21D;53743;51.100;5.874;2023-06-10T03:32:07;20.13;64.92
66835;HTU21D;53743;51.100;5.874;2023-06-10T03:33:10;20.11;64.98
66835;HTU21D;53743;51.100;5.874;2023-06-10T03:34:13;20.12;64.93
66835;HTU21D;53743;51.100;5.874;2023-06-10T03:35:14;20.11;64.92
66835;HTU21D;53743;51.100;5.874;2023-06-10T03:36:16;20.11;64.91
66835;HTU21D;53743;51.100;5.874;2023-06-10T03:37:19;20.11;64.93
66835;HTU21D;53743;51.100;5.874;2023-06-10T03:38:22;20.13;64.76
66835;HTU21D;53743;51.100;5.874;2023-06-10T03:39:25;20.11;64.76
66835;HTU21D;53743;51.100;5.874;2023-06-10T03:40:30;20.07;65.34
66835;HTU21D;53743;51.100;5.874;2023-06-10T03:41:34;20.02;65.22
66835;HTU21D;53743;51.100;5.874;2023-06-10T03:42:35;20.01;65.37
66835;HTU21D;53743;51.100;5.874;2023-06-10T03:43:38;20.00;65.47
66835;HTU21D;53743;51.100;5.874;2023-06-10T03:44:41;19.99;65.45
66835;HTU21D;53743;51.100;5.874;2023-06-10T03:45:43;20.00;65.19
66835;HTU21D;53743;51.100;5.874;2023-06-10T03:46:45;20.01;65.56
66835;HTU21D;53743;51.100;5.874;2023-06-10T03:47:48;19.98;65.30
66835;HTU21D;53743;51.100;5.874;2023-06-10T03:48:51;19.99;65.08
66835;HTU21D;53743;51.100;5.874;2023-06-10T03:49:54;20.00;65.12
66835;HTU21D;53743;51.100;5.874;2023-06-10T03:50:55;20.00;65.24
66835;HTU21D;53743;51.100;5.874;2023-06-10T03:51:57;20.02;64.83
66835;HTU21D;53743;51.100;5.874;2023-06-10T03:52:58;20.01;65.13
66835;HTU21D;53743;51.100;5.874;2023-06-10T03:54:01;19.99;65.14
66835;HTU21D;53743;51.100;5.874;2023-06-10T03:55:02;20.00;65.46
66835;HTU21D;53743;51.100;5.874;2023-06-10T03:56:06;20.00;64.85
66835;HTU21D;53743;51.100;5.874;2023-06-10T03:57:08;20.00;64.87
66835;HTU21D;53743;51.100;5.874;2023-06-10T03:58:10;20.01;64.92
66835;HTU21D;53743;51.100;5.874;2023-06-10T03:59:14;20.01;65.36
66835;HTU21D;53743;51.100;5.874;2023-06-10T04:00:18;20.01;64.94
66835;HTU21D;53743;51.100;5.874;2023-06-10T04:01:21;20.01;64.97
66835;HTU21D;53743;51.100;5.874;2023-06-10T04:02:24;20.02;64.66
66835;HTU21D;53743;51.100;5.874;2023-06-10T04:03:25;20.03;64.71
66835;HTU21D;53743;51.100;5.874;2023-06-10T04:04:27;20.01;65.78
66835;HTU21D;53743;51.100;5.874;2023-06-10T04:05:28;20.02;64.75
66835;HTU21D;53743;51.100;5.874;2023-06-10T04:06:32;20.09;64.27
66835;HTU21D;53743;51.100;5.874;2023-06-10T04:07:33;20.10;64.18
66835;HTU21D;53743;51.100;5.874;2023-06-10T04:08:35;20.14;64.07
66835;HTU21D;53743;51.100;5.874;2023-06-10T04:09:36;20.17;63.95
66835;HTU21D;53743;51.100;5.874;2023-06-10T04:10:39;20.17;63.74
66835;HTU21D;53743;51.100;5.874;2023-06-10T04:11:40;20.22;63.73
66835;HTU21D;53743;51.100;5.874;2023-06-10T04:12:44;20.24;63.55
66835;HTU21D;53743;51.100;5.874;2023-06-10T04:13:45;20.27;63.53
66835;HTU21D;53743;51.100;5.874;2023-06-10T04:14:48;20.30;63.40
66835;HTU21D;53743;51.100;5.874;2023-06-10T04:15:49;20.32;63.49
66835;HTU21D;53743;51.100;5.874;2023-06-10T04:16:52;20.34;63.11
66835;HTU21D;53743;51.100;5.874;2023-06-10T04:17:53;20.39;63.01
66835;HTU21D;53743;51.100;5.874;2023-06-10T04:18:58;20.39;63.01
66835;HTU21D;53743;51.100;5.874;2023-06-10T04:20:01;20.41;63.05
66835;HTU21D;53743;51.100;5.874;2023-06-10T04:21:04;20.42;62.95
66835;HTU21D;53743;51.100;5.874;2023-06-10T04:22:07;20.44;62.89
66835;HTU21D;53743;51.100;5.874;2023-06-10T04:23:09;20.47;62.89
66835;HTU21D;53743;51.100;5.874;2023-06-10T04:24:11;20.48;62.99
66835;HTU21D;53743;51.100;5.874;2023-06-10T04:25:13;20.54;62.71
66835;HTU21D;53743;51.100;5.874;2023-06-10T04:26:15;20.56;62.65
66835;HTU21D;53743;51.100;5.874;2023-06-10T04:27:18;20.57;62.37
66835;HTU21D;53743;51.100;5.874;2023-06-10T04:28:20;20.60;62.36
66835;HTU21D;53743;51.100;5.874;2023-06-10T04:29:22;20.62;62.37
66835;HTU21D;53743;51.100;5.874;2023-06-10T04:30:24;20.64;62.22
66835;HTU21D;53743;51.100;5.874;2023-06-10T04:31:26;20.64;62.24
66835;HTU21D;53743;51.100;5.874;2023-06-10T04:32:28;20.64;62.21
66835;HTU21D;53743;51.100;5.874;2023-06-10T04:33:30;20.68;62.00
66835;HTU21D;53743;51.100;5.874;2023-06-10T04:34:32;20.68;61.94
66835;HTU21D;53743;51.100;5.874;2023-06-10T04:35:35;20.69;62.30
66835;HTU21D;53743;51.100;5.874;2023-06-10T04:36:37;20.65;62.17
66835;HTU21D;53743;51.100;5.874;2023-06-10T04:37:40;20.64;62.16
66835;HTU21D;53743;51.100;5.874;2023-06-10T04:38:41;20.62;62.14
66835;HTU21D;53743;51.100;5.874;2023-06-10T04:39:43;20.63;62.60
66835;HTU21D;53743;51.100;5.874;2023-06-10T04:40:44;20.63;62.16
66835;HTU21D;53743;51.100;5.874;2023-06-10T04:41:48;20.63;62.21
66835;HTU21D;53743;51.100;5.874;2023-06-10T04:42:49;20.65;62.39
66835;HTU21D;53743;51.100;5.874;2023-06-10T04:43:53;20.61;62.82
66835;HTU21D;53743;51.100;5.874;2023-06-10T04:44:54;20.61;62.27
66835;HTU21D;53743;51.100;5.874;2023-06-10T04:45:56;20.66;62.30
66835;HTU21D;53743;51.100;5.874;2023-06-10T04:46:57;20.68;62.10
66835;HTU21D;53743;51.100;5.874;2023-06-10T04:47:59;20.71;61.91
66835;HTU21D;53743;51.100;5.874;2023-06-10T04:49:01;20.69;62.10
66835;HTU21D;53743;51.100;5.874;2023-06-10T04:50:04;20.74;62.31
66835;HTU21D;53743;51.100;5.874;2023-06-10T04:51:06;20.76;61.99
66835;HTU21D;53743;51.100;5.874;2023-06-10T04:52:09;20.80;61.99
66835;HTU21D;53743;51.100;5.874;2023-06-10T04:53:13;20.86;61.99
66835;HTU21D;53743;51.100;5.874;2023-06-10T04:54:19;20.91;62.07
66835;HTU21D;53743;51.100;5.874;2023-06-10T04:55:20;20.95;62.05
66835;HTU21D;53743;51.100;5.874;2023-06-10T04:56:22;21.01;61.98
66835;HTU21D;53743;51.100;5.874;2023-06-10T04:57:23;21.05;61.84
66835;HTU21D;53743;51.100;5.874;2023-06-10T04:58:26;21.14;61.50
66835;HTU21D;53743;51.100;5.874;2023-06-10T04:59:28;21.32;60.83
66835;HTU21D;53743;51.100;5.874;2023-06-10T05:00:30;21.61;59.97
66835;HTU21D;53743;51.100;5.874;2023-06-10T05:01:31;22.03;58.58
66835;HTU21D;53743;51.100;5.874;2023-06-10T05:02:34;22.53;57.05
66835;HTU21D;53743;51.100;5.874;2023-06-10T05:03:35;23.06;55.20
66835;HTU21D;53743;51.100;5.874;2023-06-10T05:04:37;23.57;52.94
66835;HTU21D;53743;51.100;5.874;2023-06-10T05:05:38;24.05;51.51
66835;HTU21D;53743;51.100;5.874;2023-06-10T05:06:40;24.49;49.67
66835;HTU21D;53743;51.100;5.874;2023-06-10T05:07:41;24.97;48.45
66835;HTU21D;53743;51.100;5.874;2023-06-10T05:08:43;25.44;47.15
66835;HTU21D;53743;51.100;5.874;2023-06-10T05:09:44;25.91;45.34
66835;HTU21D;53743;51.100;5.874;2023-06-10T05:10:46;26.25;43.74
66835;HTU21D;53743;51.100;5.874;2023-06-10T05:11:48;26.42;42.87
66835;HTU21D;53743;51.100;5.874;2023-06-10T05:12:50;26.64;42.76
66835;HTU21D;53743;51.100;5.874;2023-06-10T05:13:51;26.95;42.13
66835;HTU21D;53743;51.100;5.874;2023-06-10T05:14:54;27.32;40.39
66835;HTU21D;53743;51.100;5.874;2023-06-10T05:15:55;27.68;40.51
66835;HTU21D;53743;51.100;5.874;2023-06-10T05:16:57;28.02;39.75
66835;HTU21D;53743;51.100;5.874;2023-06-10T05:17:58;28.40;38.91
66835;HTU21D;53743;51.100;5.874;2023-06-10T05:19:00;28.75;37.93
66835;HTU21D;53743;51.100;5.874;2023-06-10T05:20:01;29.03;37.24
66835;HTU21D;53743;51.100;5.874;2023-06-10T05:21:03;29.28;36.66
66835;HTU21D;53743;51.100;5.874;2023-06-10T05:22:04;29.52;36.30
66835;HTU21D;53743;51.100;5.874;2023-06-10T05:23:06;29.80;35.82
66835;HTU21D;53743;51.100;5.874;2023-06-10T05:24:07;30.06;33.82
66835;HTU21D;53743;51.100;5.874;2023-06-10T05:25:10;30.28;34.73
66835;HTU21D;53743;51.100;5.874;2023-06-10T05:26:11;30.47;34.45
66835;HTU21D;53743;51.100;5.874;2023-06-10T05:27:13;30.74;33.79
66835;HTU21D;53743;51.100;5.874;2023-06-10T05:28:14;30.98;33.47
66835;HTU21D;53743;51.100;5.874;2023-06-10T05:29:16;31.18;32.81
66835;HTU21D;53743;51.100;5.874;2023-06-10T05:30:19;31.21;32.41
66835;HTU21D;53743;51.100;5.874;2023-06-10T05:31:21;31.28;32.02
66835;HTU21D;53743;51.100;5.874;2023-06-10T05:32:22;31.40;32.30
66835;HTU21D;53743;51.100;5.874;2023-06-10T05:33:24;31.59;32.06
66835;HTU21D;53743;51.100;5.874;2023-06-10T05:34:25;31.70;31.52
66835;HTU21D;53743;51.100;5.874;2023-06-10T05:35:27;31.74;31.11
66835;HTU21D;53743;51.100;5.874;2023-06-10T05:36:28;31.72;31.28
66835;HTU21D;53743;51.100;5.874;2023-06-10T05:37:30;31.74;31.13
66835;HTU21D;53743;51.100;5.874;2023-06-10T05:38:31;31.69;31.49
66835;HTU21D;53743;51.100;5.874;2023-06-10T05:39:35;31.67;31.30
66835;HTU21D;53743;51.100;5.874;2023-06-10T05:40:38;31.59;30.98
66835;HTU21D;53743;51.100;5.874;2023-06-10T05:41:40;31.58;30.48
66835;HTU21D;53743;51.100;5.874;2023-06-10T05:42:41;31.59;31.29
66835;HTU21D;53743;51.100;5.874;2023-06-10T05:43:43;31.71;31.01
66835;HTU21D;53743;51.100;5.874;2023-06-10T05:44:44;31.85;31.00
66835;HTU21D;53743;51.100;5.874;2023-06-10T05:45:48;31.96;30.67
66835;HTU21D;53743;51.100;5.874;2023-06-10T05:46:49;32.05;30.62
66835;HTU21D;53743;51.100;5.874;2023-06-10T05:47:51;32.22;29.65
66835;HTU21D;53743;51.100;5.874;2023-06-10T05:48:52;32.46;29.69
66835;HTU21D;53743;51.100;5.874;2023-06-10T05:49:54;32.64;28.61
66835;HTU21D;53743;51.100;5.874;2023-06-10T05:50:55;32.74;29.46
66835;HTU21D;53743;51.100;5.874;2023-06-10T05:51:57;32.79;29.28
66835;HTU21D;53743;51.100;5.874;2023-06-10T05:52:59;32.78;28.81
66835;HTU21D;53743;51.100;5.874;2023-06-10T05:54:01;32.75;29.26
66835;HTU21D;53743;51.100;5.874;2023-06-10T05:55:03;32.79;29.30
66835;HTU21D;53743;51.100;5.874;2023-06-10T05:56:05;32.99;28.95
66835;HTU21D;53743;51.100;5.874;2023-06-10T05:57:07;33.18;28.45
66835;HTU21D;53743;51.100;5.874;2023-06-10T05:58:09;33.35;26.84
66835;HTU21D;53743;51.100;5.874;2023-06-10T05:59:12;33.44;28.11
66835;HTU21D;53743;51.100;5.874;2023-06-10T06:00:14;33.56;27.75
66835;HTU21D;53743;51.100;5.874;2023-06-10T06:01:18;33.68;27.62
66835;HTU21D;53743;51.100;5.874;2023-06-10T06:02:20;33.72;27.37
66835;HTU21D;53743;51.100;5.874;2023-06-10T06:03:21;33.76;26.54
66835;HTU21D;53743;51.100;5.874;2023-06-10T06:04:23;33.79;25.62
66835;HTU21D;53743;51.100;5.874;2023-06-10T06:05:24;33.89;27.15
66835;HTU21D;53743;51.100;5.874;2023-06-10T06:06:26;34.10;26.96
66835;HTU21D;53743;51.100;5.874;2023-06-10T06:07:27;34.30;26.07
66835;HTU21D;53743;51.100;5.874;2023-06-10T06:08:29;34.36;25.69
66835;HTU21D;53743;51.100;5.874;2023-06-10T06:09:30;34.27;25.74
66835;HTU21D;53743;51.100;5.874;2023-06-10T06:10:33;34.06;26.26
66835;HTU21D;53743;51.100;5.874;2023-06-10T06:11:34;33.88;26.59
66835;HTU21D;53743;51.100;5.874;2023-06-10T06:12:37;33.85;26.48
66835;HTU21D;53743;51.100;5.874;2023-06-10T06:13:38;33.93;25.83
66835;HTU21D;53743;51.100;5.874;2023-06-10T06:14:40;33.97;26.30
66835;HTU21D;53743;51.100;5.874;2023-06-10T06:15:41;33.97;24.94
66835;HTU21D;53743;51.100;5.874;2023-06-10T06:16:45;33.95;25.86
66835;HTU21D;53743;51.100;5.874;2023-06-10T06:17:46;34.05;26.32
66835;HTU21D;53743;51.100;5.874;2023-06-10T06:18:48;34.21;24.74
66835;HTU21D;53743;51.100;5.874;2023-06-10T06:19:49;34.27;25.56
66835;HTU21D;53743;51.100;5.874;2023-06-10T06:20:51;34.25;0.00
66835;HTU21D;53743;51.100;5.874;2023-06-10T06:21:52;34.21;24.55
66835;HTU21D;53743;51.100;5.874;2023-06-10T06:22:54;34.22;25.73
66835;HTU21D;53743;51.100;5.874;2023-06-10T06:23:55;34.40;25.36
66835;HTU21D;53743;51.100;5.874;2023-06-10T06:24:58;34.74;24.14
66835;HTU21D;53743;51.100;5.874;2023-06-10T06:25:59;35.08;23.58
66835;HTU21D;53743;51.100;5.874;2023-06-10T06:27:01;35.33;24.40
66835;HTU21D;53743;51.100;5.874;2023-06-10T06:28:02;35.53;22.59
66835;HTU21D;53743;51.100;5.874;2023-06-10T06:29:04;35.62;23.36
66835;HTU21D;53743;51.100;5.874;2023-06-10T06:30:07;35.53;22.21
66835;HTU21D;53743;51.100;5.874;2023-06-10T06:31:09;35.41;0.00